Perfil

Data de entrada: 3 de jul. de 2022

Sobre




Cheap car rentals at Sherwin Field Number 1 Airport



Best car hire Sherwin Field Number 1 Airport:


Ad , , . 24/7. · AdRentagroup — ! ·


Locations in Newcastle



Newcastle Airport | Maps Contact Us - Newcastle International Airport Newcastle International Airport


Where can I rent a car at Sherwin Field Number 1 Airport?



Sherwin Field Number 1 Airport. Weston County, WY. Nastavení. Jednotky METAR KECS 130855Z AUTO 05003KT 10SM CLR M01/M05 A2985 RMK AO2. The wind is from direction northeast with a speed of 3 kt. Visibility is 10 mi. No ceiling has been observed. The temperature is 30. Flight Arrival information for Sherwin Field Nr 1 Airport (WY09) located in Dull Center/Sw Clareton/, Wyoming, United States. Includes airline, flight number, origin airport, destination airport, flight delays,.

 

Sherwin Field Number 1 Airport in Newcastle Car Rental Deals

Mais ações